createdAt,value
2023-04-04T00:03:17.884Z,100.00
2023-04-04T00:08:14.292Z,100.00
2023-04-04T00:13:10.675Z,100.00
2023-04-04T00:18:07.168Z,100.00
2023-04-04T00:23:03.487Z,100.00
2023-04-04T00:28:00.918Z,100.00
2023-04-04T00:32:58.240Z,100.00
2023-04-04T00:37:54.681Z,100.00
2023-04-04T00:42:51.336Z,100.00
2023-04-04T00:47:48.487Z,100.00
2023-04-04T00:52:44.864Z,100.00
2023-04-04T00:57:41.396Z,100.00
2023-04-04T01:02:37.753Z,100.00
2023-04-04T01:07:37.451Z,100.00
2023-04-04T01:12:34.016Z,100.00
2023-04-04T01:17:30.592Z,100.00
2023-04-04T01:22:27.815Z,100.00
2023-04-04T01:27:25.066Z,100.00
2023-04-04T01:32:27.435Z,100.00
2023-04-04T01:37:32.716Z,100.00
2023-04-04T01:42:29.168Z,100.00
2023-04-04T01:47:25.522Z,100.00
2023-04-04T01:52:21.957Z,100.00
2023-04-04T01:57:18.349Z,100.00
2023-04-04T02:02:14.644Z,100.00
2023-04-04T02:07:10.903Z,100.00
2023-04-04T02:12:08.209Z,100.00
2023-04-04T02:17:04.511Z,100.00
2023-04-04T02:22:00.952Z,100.00
2023-04-04T02:26:57.280Z,100.00
2023-04-04T02:31:53.542Z,100.00
2023-04-04T02:36:49.897Z,100.00
2023-04-04T02:41:46.582Z,100.00
2023-04-04T02:46:42.880Z,100.00
2023-04-04T02:51:39.204Z,100.00
2023-04-04T02:56:37.076Z,100.00
2023-04-04T03:01:33.621Z,100.00
2023-04-04T03:06:33.915Z,100.00
2023-04-04T03:11:30.850Z,100.00
2023-04-04T03:16:27.280Z,100.00
2023-04-04T03:21:23.781Z,100.00
2023-04-04T03:26:20.324Z,100.00
2023-04-04T03:31:19.028Z,100.00
2023-04-04T03:36:15.657Z,100.00
2023-04-04T03:41:12.056Z,100.00
2023-04-04T03:46:08.361Z,100.00
2023-04-04T03:51:04.734Z,100.00
2023-04-04T03:56:01.103Z,100.00
2023-04-04T04:00:57.376Z,100.00
2023-04-04T04:05:53.709Z,100.00
2023-04-04T04:10:49.996Z,100.00
2023-04-04T04:15:46.329Z,100.00
2023-04-04T04:20:42.804Z,100.00
2023-04-04T04:25:39.337Z,100.00
2023-04-04T04:30:35.623Z,100.00
2023-04-04T04:35:31.888Z,100.00
2023-04-04T04:40:28.287Z,100.00
2023-04-04T04:45:24.818Z,100.00
2023-04-04T04:50:21.147Z,100.00
2023-04-04T04:55:18.403Z,100.00
2023-04-04T05:00:15.369Z,100.00
2023-04-04T05:05:11.887Z,100.00
2023-04-04T05:10:08.354Z,100.00
2023-04-04T05:15:04.867Z,100.00
2023-04-04T05:20:01.288Z,100.00
2023-04-04T05:24:57.699Z,100.00
2023-04-04T05:29:53.996Z,100.00
2023-04-04T05:34:50.515Z,100.00
2023-04-04T05:39:47.158Z,100.00
2023-04-04T05:44:43.456Z,100.00
2023-04-04T05:49:39.768Z,100.00
2023-04-04T05:54:36.111Z,100.00
2023-04-04T05:59:32.751Z,100.00
2023-04-04T06:04:29.077Z,100.00
2023-04-04T06:09:25.366Z,100.00
2023-04-04T06:14:21.710Z,100.00
2023-04-04T06:19:18.792Z,100.00
2023-04-04T06:24:16.445Z,100.00
2023-04-04T06:29:13.303Z,100.00
2023-04-04T06:34:09.610Z,100.00
2023-04-04T06:39:06.300Z,100.00
2023-04-04T06:44:02.853Z,100.00
2023-04-04T06:48:59.264Z,100.00
2023-04-04T06:53:56.650Z,100.00
2023-04-04T06:58:52.957Z,100.00
2023-04-04T07:03:52.304Z,100.00
2023-04-04T07:08:48.660Z,100.00
2023-04-04T07:13:44.958Z,100.00
2023-04-04T07:18:41.334Z,100.00
2023-04-04T07:23:37.693Z,100.00
2023-04-04T07:28:34.312Z,100.00
2023-04-04T07:33:31.229Z,100.00
2023-04-04T07:38:27.779Z,90.46
2023-04-04T07:43:24.100Z,87.20
2023-04-04T07:48:22.475Z,83.24
2023-04-04T07:53:19.337Z,79.48
2023-04-04T07:58:15.609Z,77.07
2023-04-04T08:03:12.483Z,69.78
2023-04-04T08:08:08.973Z,69.25
2023-04-04T08:13:05.833Z,71.37
2023-04-04T08:18:02.665Z,71.58
2023-04-04T08:22:59.017Z,70.83
2023-04-04T08:27:55.340Z,66.82
2023-04-04T08:32:51.654Z,70.95
2023-04-04T08:37:48.417Z,66.55
2023-04-04T08:42:46.183Z,69.17
2023-04-04T08:47:44.142Z,62.66
2023-04-04T08:52:40.838Z,64.50
2023-04-04T08:57:37.839Z,65.53
2023-04-04T09:02:37.635Z,64.85
2023-04-04T09:07:36.440Z,61.76
2023-04-04T09:12:36.127Z,61.74
2023-04-04T09:17:32.425Z,60.72
2023-04-04T09:22:28.852Z,63.29
2023-04-04T09:27:25.150Z,59.53
2023-04-04T09:32:23.109Z,60.60
2023-04-04T09:37:19.555Z,59.27
2023-04-04T09:42:16.743Z,57.21
2023-04-04T09:52:25.529Z,58.10
2023-04-04T09:57:22.001Z,55.90
2023-04-04T10:02:18.804Z,56.94
2023-04-04T10:07:15.892Z,58.11
2023-04-04T10:12:13.292Z,57.89
2023-04-04T10:17:13.519Z,55.95
2023-04-04T10:22:09.853Z,54.26
2023-04-04T10:27:06.525Z,55.16
2023-04-04T10:32:05.701Z,56.86
2023-04-04T10:37:07.126Z,56.56
2023-04-04T10:42:05.257Z,54.26
2023-04-04T10:47:07.678Z,53.91
2023-04-04T10:52:04.203Z,53.65
2023-04-04T10:57:00.923Z,53.21
2023-04-04T11:01:58.720Z,52.69
2023-04-04T11:07:05.307Z,54.63
2023-04-04T11:12:08.423Z,58.62
2023-04-04T11:17:05.479Z,54.12
2023-04-04T11:22:02.602Z,51.81
2023-04-04T11:26:59.965Z,50.09
2023-04-04T11:31:57.327Z,55.50
2023-04-04T11:36:54.239Z,54.64
2023-04-04T11:41:54.906Z,53.61
2023-04-04T11:47:06.118Z,56.17
2023-04-04T11:52:06.763Z,52.88
2023-04-04T11:57:03.634Z,55.04
2023-04-04T12:02:01.131Z,50.35
2023-04-04T12:06:57.746Z,46.96
2023-04-04T12:11:57.978Z,49.24
2023-04-04T12:16:55.583Z,51.39
2023-04-04T12:21:52.955Z,50.75
2023-04-04T12:26:50.886Z,50.85
2023-04-04T12:31:48.007Z,50.64
2023-04-04T12:36:46.683Z,52.49
2023-04-04T12:41:53.189Z,51.23
2023-04-04T12:46:49.965Z,50.40
2023-04-04T12:51:46.418Z,50.92
2023-04-04T12:56:42.830Z,50.64
2023-04-04T13:01:39.185Z,47.94
2023-04-04T13:06:37.162Z,46.30
2023-04-04T13:12:12.813Z,49.93
2023-04-04T13:17:09.669Z,47.59
2023-04-04T13:22:07.735Z,46.88
2023-04-04T13:27:04.063Z,48.16
2023-04-04T13:32:01.727Z,51.61
2023-04-04T13:36:58.074Z,53.60
2023-04-04T13:41:54.379Z,51.25
2023-04-04T13:46:50.707Z,49.67
2023-04-04T13:51:47.236Z,50.52
2023-04-04T13:56:43.532Z,50.08
2023-04-04T14:01:40.574Z,48.61
2023-04-04T14:06:37.034Z,50.76
2023-04-04T14:11:33.972Z,49.30
2023-04-04T14:16:30.423Z,51.71
2023-04-04T14:21:28.056Z,48.70
2023-04-04T14:26:24.335Z,48.71
2023-04-04T14:31:20.925Z,47.59
2023-04-04T14:36:18.967Z,47.25
2023-04-04T14:41:16.536Z,48.68
2023-04-04T14:46:12.824Z,46.54
2023-04-04T14:51:09.174Z,48.12
2023-04-04T14:56:05.591Z,45.61
2023-04-04T15:01:02.563Z,45.50
2023-04-04T15:05:58.859Z,45.00
2023-04-04T15:10:55.148Z,46.43
2023-04-04T15:15:51.480Z,44.81
2023-04-04T15:20:47.829Z,45.64
2023-04-04T15:25:44.173Z,44.25
2023-04-04T15:30:41.039Z,45.67
2023-04-04T15:35:37.660Z,43.54
2023-04-04T15:40:33.966Z,42.68
2023-04-04T15:45:30.276Z,44.26
2023-04-04T15:50:26.609Z,44.34
2023-04-04T15:55:23.546Z,44.88
2023-04-04T16:00:19.975Z,44.29
2023-04-04T16:05:16.311Z,43.94
2023-04-04T16:10:12.592Z,43.12
2023-04-04T16:15:09.086Z,41.72
2023-04-04T16:20:06.042Z,42.62
2023-04-04T16:25:02.405Z,43.55
2023-04-04T16:29:58.700Z,43.50
2023-04-04T16:34:55.108Z,44.45
2023-04-04T16:39:52.235Z,42.48
2023-04-04T16:44:48.712Z,42.85
2023-04-04T16:49:47.035Z,41.68
2023-04-04T16:54:43.314Z,42.05
2023-04-04T16:59:39.745Z,40.82
2023-04-04T17:04:39.460Z,41.21
2023-04-04T17:09:38.228Z,39.21
2023-04-04T17:14:35.530Z,37.93
2023-04-04T17:19:32.939Z,38.29
2023-04-04T17:24:29.230Z,41.95
2023-04-04T17:29:26.907Z,46.99
2023-04-04T17:34:23.718Z,48.75
2023-04-04T17:39:20.275Z,50.37
2023-04-04T17:44:16.990Z,50.78
2023-04-04T17:49:16.014Z,52.26
2023-04-04T17:54:12.441Z,54.87
2023-04-04T17:59:08.967Z,53.59
2023-04-04T18:04:05.611Z,54.25
2023-04-04T18:09:01.951Z,55.32
2023-04-04T18:13:58.452Z,55.72
2023-04-04T18:18:54.729Z,54.81
2023-04-04T18:23:51.411Z,55.92
2023-04-04T18:28:48.136Z,55.95
2023-04-04T18:33:44.432Z,57.13
2023-04-04T18:38:40.968Z,56.96
2023-04-04T18:43:37.365Z,58.82
2023-04-04T18:48:33.726Z,58.91
2023-04-04T18:53:30.420Z,61.72
2023-04-04T18:58:27.097Z,63.67
2023-04-04T19:03:23.543Z,68.36
2023-04-04T19:08:20.008Z,69.90
2023-04-04T19:13:16.879Z,74.53
2023-04-04T19:18:13.173Z,78.53
2023-04-04T19:23:10.256Z,82.78
2023-04-04T19:28:07.064Z,82.67
2023-04-04T19:33:08.140Z,81.54
2023-04-04T19:38:06.160Z,83.53
2023-04-04T19:43:03.028Z,77.78
2023-04-04T19:47:59.976Z,82.49
2023-04-04T19:52:56.440Z,86.62
2023-04-04T19:57:52.722Z,83.32
2023-04-04T20:02:50.454Z,91.94
2023-04-04T20:07:46.758Z,90.67
2023-04-04T20:12:43.081Z,93.61
2023-04-04T20:17:39.418Z,100.00
2023-04-04T20:22:35.704Z,100.00
2023-04-04T20:27:33.182Z,98.48
2023-04-04T20:32:30.177Z,99.04
2023-04-04T20:37:28.612Z,95.02
2023-04-04T20:42:28.100Z,92.91
2023-04-04T20:47:43.590Z,100.00
2023-04-04T20:52:39.896Z,100.00
2023-04-04T20:57:36.410Z,100.00
2023-04-04T21:02:33.938Z,100.00
2023-04-04T21:07:40.864Z,100.00
2023-04-04T21:12:37.125Z,100.00
2023-04-04T21:17:33.420Z,100.00
2023-04-04T21:22:31.573Z,100.00
2023-04-04T21:27:34.052Z,100.00
2023-04-04T21:32:30.590Z,100.00
2023-04-04T21:37:26.866Z,100.00
2023-04-04T21:42:23.128Z,100.00
2023-04-04T21:47:19.364Z,100.00
2023-04-04T21:52:15.847Z,100.00
2023-04-04T21:57:12.836Z,100.00
2023-04-04T22:02:09.207Z,97.53
2023-04-04T22:07:05.785Z,100.00
2023-04-04T22:12:02.792Z,100.00
2023-04-04T22:16:59.118Z,100.00
2023-04-04T22:21:58.529Z,100.00
2023-04-04T22:26:55.062Z,100.00
2023-04-04T22:31:51.342Z,100.00
2023-04-04T22:36:47.655Z,100.00
2023-04-04T22:41:44.301Z,100.00
2023-04-04T22:46:41.029Z,100.00
2023-04-04T22:51:45.073Z,100.00
2023-04-04T22:56:41.932Z,100.00
2023-04-04T23:01:38.693Z,100.00
2023-04-04T23:06:35.880Z,100.00
2023-04-04T23:11:32.172Z,100.00
2023-04-04T23:16:28.800Z,100.00
2023-04-04T23:21:25.347Z,100.00
2023-04-04T23:26:21.841Z,100.00
2023-04-04T23:31:20.568Z,100.00
2023-04-04T23:36:17.053Z,100.00
2023-04-04T23:41:13.538Z,100.00
2023-04-04T23:46:10.570Z,100.00
2023-04-04T23:51:08.483Z,100.00
2023-04-04T23:56:04.868Z,100.00
